Airfield :
LOGIN :

Register | Disclaimer

   EN    FR    IT 

 










Legend :    VFR   Marginal VFR   IFR   Intensive IFR   Very Intensive IFR
Visi :
Ceiling :
>= 8 km
>= 3000ft
5 to 8 km
1000 to 3000 ft
1500m to 5 km
500 to 1000 ft
800 to 1500m
200 to 500 ft
< 800m
< 200 ft
Symbols :   Thunderstorms  Fog  Heavy snow  Heavy precipitations  Wind > 20 kt
SIGMETs :     Misc.  Thunderstorms  Icing  Turbulence  Mountain Waves  Volcanic Ashes






- Airport Elevation : 49 ft
- IATA code : GLZ


EHGR - Gilze-Rijen Airbase

CURRENT METAR :
  • 170129Z AUTO 23017G27KT 200V280 9999 FEW022CB 09/04 Q1008 BLU

EXPIRED METARs :
  • 170111Z AUTO 23014KT 200V280 9999 FEW020CB SCT032 BKN043 09/04 Q1007 BLU
  • 170055Z AUTO 24017G27KT 190V270 9999 FEW026 SCT038 BKN044 09/04 Q1007 REDZ BLU
  • 170025Z AUTO 23014KT 200V280 9999 FEW031 SCT039 OVC230 09/04 Q1007 BLU
  • 162355Z AUTO 23012KT 160V270 9999 FEW023 BKN026 BKN031 09/05 Q1006 BLU
  • 162337Z AUTO 23013KT 200V270 9999 SCT022 BKN026 BKN030 09/05 Q1006 WHT
  • 162325Z AUTO 23013G24KT 200V270 9999 FEW026 BKN032 OVC037 09/05 Q1005 BLU
  • 162259Z AUTO 22014KT 170V260 9999 FEW023 BKN028 BKN032 09/06 Q1005 BLU
  • 162248Z AUTO 22013G23KT 180V260 9999 FEW021 SCT024 BKN029 09/06 Q1005 WHT
  • 162241Z AUTO 21013KT 180V260 9999 FEW020 BKN025 BKN029 09/06 Q1005 BLU

Expired Forecast.



MET'MAP, your aeronautical weather chart ! - Copyright ORBIFLY December 2007 - Disclaimer

ORBIFLY MET'MAP TEAM :

Programming & Development : Alexandra Zaïnal
Concept & original design : Baudouin d'Aumeries
Assistance for programming : Marc-Olivier Méhu
Technical & hardware support : Manuel Goepfert

Contact : metmap@orbifly.com




SOURCES & CREDITS :

   NOAA